createdAt,value
2019-03-03T00:01:43.319Z,14.38
2019-03-03T00:03:47.520Z,14.43
2019-03-03T00:05:52.667Z,15.08
2019-03-03T00:07:56.959Z,13.65
2019-03-03T00:10:01.085Z,12.90
2019-03-03T00:12:05.285Z,15.03
2019-03-03T00:14:09.510Z,13.65
2019-03-03T00:16:13.333Z,13.60
2019-03-03T00:18:17.537Z,13.72
2019-03-03T00:20:23.065Z,15.70
2019-03-03T00:22:28.573Z,12.47
2019-03-03T00:24:35.294Z,11.40
2019-03-03T00:26:39.495Z,11.93
2019-03-03T00:28:43.309Z,12.37
2019-03-03T00:30:47.517Z,15.93
2019-03-03T00:32:51.329Z,10.85
2019-03-03T00:34:55.531Z,12.37
2019-03-03T00:37:01.384Z,12.10
2019-03-03T00:39:08.345Z,18.25
2019-03-03T00:41:13.844Z,11.22
2019-03-03T00:43:34.526Z,15.23
2019-03-03T00:45:45.998Z,16.32
2019-03-03T00:47:57.460Z,13.05
2019-03-03T00:50:03.211Z,14.80
2019-03-03T00:52:11.731Z,13.22
2019-03-03T00:54:32.199Z,11.95
2019-03-03T00:56:43.626Z,13.62
2019-03-03T00:58:52.317Z,13.25
2019-03-03T01:00:58.179Z,11.15
2019-03-03T01:03:03.787Z,13.60
2019-03-03T01:05:10.383Z,14.53
2019-03-03T01:07:31.603Z,11.35
2019-03-03T01:09:48.863Z,14.80
2019-03-03T01:11:56.389Z,15.40
2019-03-03T01:14:04.801Z,12.50
2019-03-03T01:16:13.136Z,12.93
2019-03-03T01:18:21.632Z,13.88
2019-03-03T01:20:30.240Z,14.45
2019-03-03T01:22:36.094Z,18.95
2019-03-03T01:24:41.841Z,15.90
2019-03-03T01:26:45.663Z,12.75
2019-03-03T01:28:49.864Z,13.22
2019-03-03T01:30:54.006Z,11.55
2019-03-03T01:32:58.203Z,14.78
2019-03-03T01:35:02.027Z,16.93
2019-03-03T01:37:06.293Z,13.20
2019-03-03T01:39:11.028Z,16.30
2019-03-03T01:41:15.128Z,12.25
2019-03-03T01:43:18.984Z,16.30
2019-03-03T01:45:23.155Z,11.73
2019-03-03T01:47:28.607Z,11.15
2019-03-03T01:49:32.697Z,17.40
2019-03-03T01:51:36.833Z,15.25
2019-03-03T01:53:41.034Z,12.05
2019-03-03T01:55:45.243Z,14.80
2019-03-03T01:57:49.355Z,12.95
2019-03-03T01:59:53.564Z,18.45
2019-03-03T02:01:57.823Z,15.08
2019-03-03T02:04:01.901Z,14.60
2019-03-03T02:06:06.817Z,10.55
2019-03-03T02:08:11.042Z,13.25
2019-03-03T02:10:16.871Z,13.20
2019-03-03T02:12:21.093Z,11.25
2019-03-03T02:14:25.383Z,14.13
2019-03-03T02:16:29.615Z,13.80
2019-03-03T02:18:33.751Z,13.53
2019-03-03T02:20:37.935Z,15.98
2019-03-03T02:22:41.946Z,11.68
2019-03-03T02:24:49.535Z,14.80
2019-03-03T02:26:55.022Z,14.73
2019-03-03T02:28:58.793Z,15.25
2019-03-03T02:31:02.634Z,14.85
2019-03-03T02:33:08.858Z,13.13
2019-03-03T02:35:13.054Z,13.98
2019-03-03T02:37:18.790Z,16.25
2019-03-03T02:39:22.916Z,13.53
2019-03-03T02:41:27.138Z,16.27
2019-03-03T02:43:34.307Z,14.65
2019-03-03T02:45:38.554Z,15.13
2019-03-03T02:47:42.847Z,14.73
2019-03-03T02:49:47.058Z,19.20
2019-03-03T02:51:51.267Z,12.60
2019-03-03T02:53:55.372Z,15.28
2019-03-03T02:55:59.584Z,15.55
2019-03-03T02:58:03.479Z,15.35
2019-03-03T03:00:10.629Z,16.15
2019-03-03T03:02:18.773Z,19.82
2019-03-03T03:04:23.194Z,19.50
2019-03-03T03:06:31.937Z,14.87
2019-03-03T03:08:37.394Z,16.45
2019-03-03T03:10:48.564Z,19.17
2019-03-03T03:13:03.008Z,20.17
2019-03-03T03:15:21.946Z,16.12
2019-03-03T03:17:36.810Z,19.87
2019-03-03T03:19:45.528Z,21.42
2019-03-03T03:21:57.120Z,22.80
2019-03-03T03:24:02.964Z,23.98
2019-03-03T03:26:09.978Z,16.55
2019-03-03T03:28:15.800Z,17.52
2019-03-03T03:30:33.268Z,17.57
2019-03-03T03:32:42.036Z,24.15
2019-03-03T03:34:51.660Z,18.52
2019-03-03T03:37:00.106Z,18.75
2019-03-03T03:39:19.090Z,19.50
2019-03-03T03:41:27.359Z,18.75
2019-03-03T03:43:33.213Z,19.02
2019-03-03T03:45:39.058Z,22.85
2019-03-03T03:47:50.337Z,18.85
2019-03-03T03:49:56.186Z,21.87
2019-03-03T03:52:07.440Z,17.82
2019-03-03T03:54:22.218Z,17.32
2019-03-03T03:56:34.335Z,27.05
2019-03-03T03:58:45.286Z,19.20
2019-03-03T04:01:03.159Z,22.35
2019-03-03T04:03:23.717Z,22.65
2019-03-03T04:05:38.778Z,16.50
2019-03-03T04:07:44.402Z,23.52
2019-03-03T04:10:01.844Z,22.07
2019-03-03T04:12:22.557Z,17.65
2019-03-03T04:14:28.404Z,23.35
2019-03-03T04:16:45.594Z,19.98
2019-03-03T04:18:53.824Z,20.25
2019-03-03T04:20:59.576Z,18.32
2019-03-03T04:23:21.196Z,19.20
2019-03-03T04:25:27.059Z,18.98
2019-03-03T04:27:38.859Z,20.80
2019-03-03T04:29:44.700Z,23.83
2019-03-03T04:31:53.628Z,20.20
2019-03-03T04:33:59.086Z,17.17
2019-03-03T04:36:04.561Z,22.37
2019-03-03T04:38:16.392Z,14.35
2019-03-03T04:40:37.226Z,18.27
2019-03-03T04:42:48.974Z,17.02
2019-03-03T04:45:03.217Z,20.27
2019-03-03T04:47:08.976Z,23.25
2019-03-03T04:49:31.126Z,17.23
2019-03-03T04:51:53.042Z,22.95
2019-03-03T04:53:58.787Z,21.73
2019-03-03T04:56:13.234Z,18.48
2019-03-03T04:58:35.464Z,19.25
2019-03-03T05:00:53.226Z,18.57
2019-03-03T05:02:59.046Z,21.62
2019-03-03T05:05:04.899Z,19.32
2019-03-03T05:07:13.728Z,20.27
2019-03-03T05:09:39.374Z,20.37
2019-03-03T05:12:04.952Z,19.02
2019-03-03T05:14:13.468Z,21.15
2019-03-03T05:16:18.949Z,19.50
2019-03-03T05:18:25.359Z,20.70
2019-03-03T05:20:31.012Z,19.97
2019-03-03T05:22:34.842Z,21.02
2019-03-03T05:24:38.675Z,19.57
2019-03-03T05:26:42.828Z,19.52
2019-03-03T05:28:46.676Z,22.30
2019-03-03T05:30:50.889Z,23.02
2019-03-03T05:32:54.978Z,18.20
2019-03-03T05:34:59.397Z,21.48
2019-03-03T05:37:03.495Z,18.17
2019-03-03T05:39:07.608Z,24.37
2019-03-03T05:41:11.817Z,21.55
2019-03-03T05:43:15.948Z,21.17
2019-03-03T05:45:20.032Z,20.08
2019-03-03T05:47:23.877Z,16.80
2019-03-03T05:49:30.711Z,19.37
2019-03-03T05:51:34.821Z,15.25
2019-03-03T05:53:38.687Z,22.85
2019-03-03T05:55:44.674Z,19.82
2019-03-03T05:57:48.889Z,16.57
2019-03-03T05:59:57.083Z,17.32
2019-03-03T06:02:00.914Z,15.58
2019-03-03T06:04:05.001Z,21.60
2019-03-03T06:06:09.428Z,18.70
2019-03-03T06:08:13.244Z,15.20
2019-03-03T06:10:17.960Z,16.30
2019-03-03T06:12:22.164Z,16.95
2019-03-03T06:14:26.305Z,18.07
2019-03-03T06:16:31.020Z,15.43
2019-03-03T06:18:35.106Z,17.30
2019-03-03T06:20:39.223Z,17.40
2019-03-03T06:22:43.364Z,18.37
2019-03-03T06:24:47.538Z,19.82
2019-03-03T06:26:51.660Z,16.00
2019-03-03T06:28:55.876Z,19.52
2019-03-03T06:31:00.089Z,17.55
2019-03-03T06:33:04.303Z,16.15
2019-03-03T06:35:10.231Z,19.55
2019-03-03T06:37:14.356Z,21.40
2019-03-03T06:39:18.595Z,15.90
2019-03-03T06:41:22.414Z,14.30
2019-03-03T06:43:26.231Z,20.62
2019-03-03T06:45:30.072Z,23.98
2019-03-03T06:47:34.726Z,19.07
2019-03-03T06:49:38.556Z,17.48
2019-03-03T06:51:42.722Z,18.45
2019-03-03T06:53:46.834Z,18.00
2019-03-03T06:55:50.943Z,16.62
2019-03-03T06:57:55.151Z,15.80
2019-03-03T06:59:58.973Z,22.48
2019-03-03T07:02:03.064Z,20.35
2019-03-03T07:04:07.270Z,16.60
2019-03-03T07:06:11.392Z,18.80
2019-03-03T07:08:15.491Z,20.00
2019-03-03T07:10:19.330Z,18.70
2019-03-03T07:12:23.512Z,17.57
2019-03-03T07:14:27.733Z,18.42
2019-03-03T07:16:33.382Z,17.57
2019-03-03T07:18:37.493Z,21.68
2019-03-03T07:20:41.694Z,19.12
2019-03-03T07:22:45.546Z,19.15
2019-03-03T07:24:49.707Z,18.82
2019-03-03T07:26:53.873Z,17.15
2019-03-03T07:28:58.070Z,16.62
2019-03-03T07:31:02.145Z,16.85
2019-03-03T07:33:08.010Z,16.27
2019-03-03T07:35:12.099Z,16.20
2019-03-03T07:37:15.938Z,21.50
2019-03-03T07:39:20.134Z,17.65
2019-03-03T07:41:23.954Z,14.35
2019-03-03T07:43:27.785Z,19.57
2019-03-03T07:45:31.944Z,26.68
2019-03-03T07:47:35.771Z,22.60
2019-03-03T07:49:39.618Z,33.63
2019-03-03T07:51:43.464Z,29.80
2019-03-03T07:53:47.287Z,19.70
2019-03-03T07:55:51.472Z,21.45
2019-03-03T07:57:55.682Z,17.12
2019-03-03T07:59:59.792Z,21.42
2019-03-03T08:02:03.907Z,19.00
2019-03-03T08:04:08.147Z,18.23
2019-03-03T08:06:12.320Z,18.10
2019-03-03T08:08:16.425Z,21.20
2019-03-03T08:10:20.286Z,18.17
2019-03-03T08:12:24.186Z,14.70
2019-03-03T08:14:28.004Z,21.93
2019-03-03T08:16:32.269Z,17.23
2019-03-03T08:18:37.905Z,22.00
2019-03-03T08:20:42.119Z,18.45
2019-03-03T08:22:46.339Z,14.20
2019-03-03T08:24:51.414Z,20.52
2019-03-03T08:26:55.235Z,18.73
2019-03-03T08:28:59.075Z,17.82
2019-03-03T08:31:02.888Z,16.20
2019-03-03T08:33:07.103Z,11.20
2019-03-03T08:35:19.130Z,20.88
2019-03-03T08:37:22.947Z,18.05
2019-03-03T08:39:27.097Z,19.15
2019-03-03T08:41:32.237Z,17.90
2019-03-03T08:43:37.698Z,13.65
2019-03-03T08:45:48.910Z,16.75
2019-03-03T08:48:03.825Z,18.17
2019-03-03T08:50:16.729Z,16.52
2019-03-03T08:52:25.148Z,14.43
2019-03-03T08:54:30.316Z,17.80
2019-03-03T08:56:41.445Z,16.40
2019-03-03T08:58:46.997Z,19.97
2019-03-03T09:00:54.967Z,15.87
2019-03-03T09:03:12.425Z,13.87
2019-03-03T09:05:21.411Z,16.13
2019-03-03T09:07:26.898Z,16.23
2019-03-03T09:09:38.368Z,13.37
2019-03-03T09:11:44.129Z,17.50
2019-03-03T09:13:49.857Z,14.17
2019-03-03T09:16:11.691Z,19.37
2019-03-03T09:18:28.903Z,16.90
2019-03-03T09:20:47.159Z,19.00
2019-03-03T09:22:52.355Z,13.00
2019-03-03T09:25:00.503Z,15.93
2019-03-03T09:27:06.353Z,13.30
2019-03-03T09:29:27.243Z,13.33
2019-03-03T09:31:38.525Z,20.67
2019-03-03T09:33:58.915Z,14.60
2019-03-03T09:36:07.123Z,17.03
2019-03-03T09:38:25.369Z,12.93
2019-03-03T09:40:42.492Z,15.30
2019-03-03T09:42:47.677Z,11.27
2019-03-03T09:44:59.006Z,19.77
2019-03-03T09:47:07.528Z,12.33
2019-03-03T09:49:13.065Z,13.47
2019-03-03T09:51:18.224Z,9.33
2019-03-03T09:53:23.736Z,11.23
2019-03-03T09:55:31.969Z,8.30
2019-03-03T09:57:43.325Z,11.07
2019-03-03T09:59:54.234Z,11.70
2019-03-03T10:02:15.656Z,19.87
2019-03-03T10:04:21.270Z,14.03
2019-03-03T10:06:32.746Z,15.20
2019-03-03T10:08:54.657Z,25.27
2019-03-03T10:11:05.847Z,13.83
2019-03-03T10:13:14.139Z,14.37
2019-03-03T10:15:25.617Z,19.07
2019-03-03T10:17:36.659Z,12.90
2019-03-03T10:19:45.227Z,10.93
2019-03-03T10:22:00.748Z,10.87
2019-03-03T10:24:05.997Z,12.67
2019-03-03T10:26:29.446Z,12.83
2019-03-03T10:28:34.950Z,15.10
2019-03-03T10:30:40.478Z,13.17
2019-03-03T10:32:46.033Z,11.93
2019-03-03T10:34:54.327Z,10.27
2019-03-03T10:37:05.615Z,12.00
2019-03-03T10:39:14.552Z,10.10
2019-03-03T10:41:36.291Z,11.37
2019-03-03T10:43:44.318Z,11.97
2019-03-03T10:45:52.567Z,15.30
2019-03-03T10:47:58.102Z,11.00
2019-03-03T10:50:12.453Z,12.33
2019-03-03T10:52:27.005Z,13.60
2019-03-03T10:54:44.466Z,10.77
2019-03-03T10:56:52.953Z,15.27
2019-03-03T10:59:08.849Z,11.93
2019-03-03T11:01:16.811Z,6.73
2019-03-03T11:03:38.597Z,17.00
2019-03-03T11:05:52.739Z,14.43
2019-03-03T11:08:00.722Z,12.63
2019-03-03T11:10:12.906Z,14.73
2019-03-03T11:12:21.327Z,22.87
2019-03-03T11:14:42.014Z,10.20
2019-03-03T11:16:59.769Z,16.30
2019-03-03T11:19:11.333Z,13.93
2019-03-03T11:21:28.221Z,13.13
2019-03-03T11:23:42.589Z,17.33
2019-03-03T11:26:00.122Z,6.73
2019-03-03T11:28:08.443Z,10.03
2019-03-03T11:30:34.053Z,11.37
2019-03-03T11:32:55.554Z,12.13
2019-03-03T11:35:16.777Z,6.10
2019-03-03T11:37:38.075Z,10.60
2019-03-03T11:39:43.631Z,9.10
2019-03-03T11:42:00.347Z,12.90
2019-03-03T11:44:05.566Z,8.37
2019-03-03T11:46:11.122Z,7.87
2019-03-03T11:48:22.295Z,12.07
2019-03-03T11:50:27.464Z,11.97
2019-03-03T11:52:32.973Z,5.83
2019-03-03T11:54:38.514Z,7.80
2019-03-03T11:56:46.721Z,13.07
2019-03-03T11:58:54.667Z,9.70
2019-03-03T12:01:06.097Z,10.43
2019-03-03T12:03:12.566Z,8.80
2019-03-03T12:05:20.820Z,10.17
2019-03-03T12:07:44.450Z,10.90
2019-03-03T12:09:52.247Z,7.27
2019-03-03T12:12:14.077Z,9.57
2019-03-03T12:14:19.601Z,9.13
2019-03-03T12:16:30.581Z,9.23
2019-03-03T12:18:36.131Z,10.90
2019-03-03T12:20:41.702Z,7.50
2019-03-03T12:22:49.577Z,14.43
2019-03-03T12:25:04.033Z,6.63
2019-03-03T12:27:15.198Z,6.00
2019-03-03T12:29:29.269Z,5.47
2019-03-03T12:31:34.784Z,7.13
2019-03-03T12:33:46.054Z,8.13
2019-03-03T12:36:07.779Z,14.17
2019-03-03T12:38:25.185Z,9.13
2019-03-03T12:40:36.479Z,12.47
2019-03-03T12:42:47.840Z,7.03
2019-03-03T12:44:53.004Z,8.20
2019-03-03T12:46:58.549Z,9.90
2019-03-03T12:49:04.090Z,11.60
2019-03-03T12:51:21.326Z,9.30
2019-03-03T12:53:29.295Z,11.83
2019-03-03T12:55:34.740Z,7.30
2019-03-03T12:57:40.290Z,9.17
2019-03-03T12:59:45.451Z,8.93
2019-03-03T13:01:53.438Z,10.53
2019-03-03T13:04:15.052Z,8.07
2019-03-03T13:06:30.419Z,10.80
2019-03-03T13:08:35.962Z,13.00
2019-03-03T13:10:41.509Z,8.60
2019-03-03T13:12:52.989Z,7.33
2019-03-03T13:15:00.918Z,9.40
2019-03-03T13:17:15.238Z,8.60
2019-03-03T13:19:32.866Z,9.83
2019-03-03T13:21:40.740Z,9.77
2019-03-03T13:23:51.845Z,7.73
2019-03-03T13:26:02.815Z,12.93
2019-03-03T13:28:08.346Z,9.57
2019-03-03T13:30:21.115Z,10.30
2019-03-03T13:32:35.543Z,9.40
2019-03-03T13:34:40.737Z,7.00
2019-03-03T13:36:51.719Z,8.87
2019-03-03T13:39:03.301Z,9.67
2019-03-03T13:41:14.482Z,10.10
2019-03-03T13:43:18.383Z,9.47
2019-03-03T13:45:22.296Z,7.83
2019-03-03T13:47:26.210Z,6.47
2019-03-03T13:49:30.207Z,6.67
2019-03-03T13:51:34.021Z,8.73
2019-03-03T13:53:37.929Z,11.67
2019-03-03T13:55:41.823Z,5.80
2019-03-03T13:57:45.411Z,11.03
2019-03-03T13:59:49.334Z,11.07
2019-03-03T14:01:53.244Z,6.90
2019-03-03T14:03:57.166Z,7.90
2019-03-03T14:06:00.802Z,6.10
2019-03-03T14:08:04.753Z,7.60
2019-03-03T14:10:10.492Z,11.17
2019-03-03T14:12:14.408Z,8.03
2019-03-03T14:14:18.309Z,6.63
2019-03-03T14:16:23.658Z,6.30
2019-03-03T14:18:27.643Z,8.37
2019-03-03T14:20:31.565Z,7.87
2019-03-03T14:22:35.462Z,7.93
2019-03-03T14:24:41.973Z,10.07
2019-03-03T14:26:45.466Z,9.50
2019-03-03T14:28:48.999Z,5.83
2019-03-03T14:30:52.830Z,7.43
2019-03-03T14:32:56.924Z,8.03
2019-03-03T14:35:00.454Z,10.20
2019-03-03T14:37:04.326Z,5.30
2019-03-03T14:39:08.929Z,5.73
2019-03-03T14:41:12.752Z,7.40
2019-03-03T14:43:16.568Z,9.50
2019-03-03T14:45:20.592Z,9.00
2019-03-03T14:47:24.492Z,14.27
2019-03-03T14:49:28.289Z,28.53
2019-03-03T14:51:31.897Z,21.07
2019-03-03T14:53:35.776Z,13.83
2019-03-03T14:55:39.586Z,9.63
2019-03-03T14:57:43.206Z,14.40
2019-03-03T14:59:47.095Z,12.37
2019-03-03T15:01:51.002Z,14.03
2019-03-03T15:03:54.904Z,8.60
2019-03-03T15:05:58.688Z,12.93
2019-03-03T15:08:03.740Z,15.83
2019-03-03T15:10:10.805Z,11.40
2019-03-03T15:12:14.723Z,9.63
2019-03-03T15:14:18.719Z,9.53
2019-03-03T15:16:22.538Z,17.97
2019-03-03T15:18:26.139Z,7.03
2019-03-03T15:20:30.338Z,13.23
2019-03-03T15:22:34.238Z,6.60
2019-03-03T15:24:38.154Z,18.07
2019-03-03T15:26:41.692Z,17.27
2019-03-03T15:28:45.557Z,14.33
2019-03-03T15:30:49.364Z,7.23
2019-03-03T15:32:53.366Z,12.27
2019-03-03T15:34:56.998Z,16.83
2019-03-03T15:37:00.596Z,11.57
2019-03-03T15:39:06.462Z,23.03
2019-03-03T15:41:10.012Z,9.70
2019-03-03T15:43:14.328Z,12.60
2019-03-03T15:45:20.690Z,7.87
2019-03-03T15:47:24.244Z,13.33
2019-03-03T15:49:27.771Z,16.67
2019-03-03T15:51:31.686Z,10.67
2019-03-03T15:53:35.590Z,11.07
2019-03-03T15:55:39.506Z,7.30
2019-03-03T15:57:43.426Z,11.60
2019-03-03T15:59:47.317Z,10.47
2019-03-03T16:01:51.213Z,5.73
2019-03-03T16:03:55.125Z,14.20
2019-03-03T16:05:58.672Z,11.10
2019-03-03T16:08:02.624Z,7.70
2019-03-03T16:10:09.227Z,8.57
2019-03-03T16:12:13.096Z,10.77
2019-03-03T16:14:17.003Z,10.07
2019-03-03T16:16:20.557Z,10.10
2019-03-03T16:18:24.408Z,13.03
2019-03-03T16:20:28.312Z,9.93
2019-03-03T16:22:32.218Z,9.63
2019-03-03T16:24:35.842Z,12.23
2019-03-03T16:26:39.416Z,9.80
2019-03-03T16:28:43.313Z,9.67
2019-03-03T16:30:47.224Z,8.07
2019-03-03T16:32:51.121Z,9.17
2019-03-03T16:34:54.666Z,10.30
2019-03-03T16:36:58.214Z,13.63
2019-03-03T16:39:02.143Z,10.00
2019-03-03T16:41:06.090Z,19.37
2019-03-03T16:43:09.627Z,12.10
2019-03-03T16:45:15.193Z,8.53
2019-03-03T16:47:19.099Z,14.37
2019-03-03T16:49:22.982Z,16.23
2019-03-03T16:51:26.902Z,13.13
2019-03-03T16:53:30.795Z,14.30
2019-03-03T16:55:34.709Z,24.50
2019-03-03T16:57:38.615Z,13.73
2019-03-03T16:59:42.532Z,10.67
2019-03-03T17:01:46.435Z,15.97
2019-03-03T17:03:49.967Z,9.47
2019-03-03T17:05:53.524Z,8.70
2019-03-03T17:07:57.432Z,8.87
2019-03-03T17:10:01.002Z,13.40
2019-03-03T17:12:04.832Z,13.17
2019-03-03T17:14:08.711Z,12.60
2019-03-03T17:16:12.265Z,10.50
2019-03-03T17:18:15.856Z,11.30
2019-03-03T17:20:19.817Z,10.40
2019-03-03T17:22:23.743Z,13.63
2019-03-03T17:24:27.532Z,8.90
2019-03-03T17:26:31.528Z,11.47
2019-03-03T17:28:35.062Z,14.47
2019-03-03T17:30:38.942Z,13.90
2019-03-03T17:32:42.946Z,14.60
2019-03-03T17:34:46.456Z,10.50
2019-03-03T17:36:50.861Z,15.67
2019-03-03T17:38:54.428Z,16.13
2019-03-03T17:40:58.277Z,9.13
2019-03-03T17:43:03.905Z,17.63
2019-03-03T17:45:13.152Z,8.80
2019-03-03T17:47:17.033Z,12.90
2019-03-03T17:49:20.560Z,6.90
2019-03-03T17:51:24.435Z,9.43
2019-03-03T17:53:28.349Z,10.93
2019-03-03T17:55:32.244Z,15.60
2019-03-03T17:57:36.065Z,11.83
2019-03-03T17:59:39.982Z,11.50
2019-03-03T18:01:43.524Z,9.53
2019-03-03T18:03:47.363Z,12.07
2019-03-03T18:05:51.461Z,9.13
2019-03-03T18:07:55.101Z,7.83
2019-03-03T18:09:58.694Z,9.73
2019-03-03T18:12:02.585Z,10.77
2019-03-03T18:14:06.103Z,14.13
2019-03-03T18:16:10.007Z,10.23
2019-03-03T18:18:13.888Z,11.70
2019-03-03T18:20:21.476Z,10.87
2019-03-03T18:22:25.274Z,10.23
2019-03-03T18:24:28.783Z,8.90
2019-03-03T18:26:32.687Z,11.83
2019-03-03T18:28:36.617Z,8.80
2019-03-03T18:30:42.023Z,11.17
2019-03-03T18:32:45.930Z,11.73
2019-03-03T18:34:49.486Z,8.43
2019-03-03T18:36:53.282Z,10.00
2019-03-03T18:38:59.744Z,10.97
2019-03-03T18:41:03.591Z,8.67
2019-03-03T18:43:07.532Z,8.57
2019-03-03T18:45:13.354Z,9.37
2019-03-03T18:47:17.166Z,9.73
2019-03-03T18:49:21.065Z,13.33
2019-03-03T18:51:24.586Z,14.63
2019-03-03T18:53:28.127Z,11.73
2019-03-03T18:55:31.639Z,9.57
2019-03-03T18:57:35.474Z,14.10
2019-03-03T18:59:39.033Z,8.50
2019-03-03T19:01:42.967Z,13.67
2019-03-03T19:03:48.303Z,11.33
2019-03-03T19:05:55.640Z,9.27
2019-03-03T19:07:57.593Z,11.70
2019-03-03T19:10:01.456Z,11.10
2019-03-03T19:12:05.264Z,9.07
2019-03-03T19:14:09.043Z,13.23
2019-03-03T19:16:12.864Z,14.63
2019-03-03T19:18:16.808Z,11.27
2019-03-03T19:20:21.619Z,9.23
2019-03-03T19:22:25.500Z,10.37
2019-03-03T19:24:29.291Z,8.60
2019-03-03T19:26:33.215Z,10.40
2019-03-03T19:28:36.737Z,12.47
2019-03-03T19:30:40.602Z,10.30
2019-03-03T19:32:47.197Z,7.07
2019-03-03T19:34:51.094Z,14.40
2019-03-03T19:36:54.992Z,10.70
2019-03-03T19:38:58.593Z,20.53
2019-03-03T19:41:02.489Z,10.77
2019-03-03T19:43:06.499Z,6.90
2019-03-03T19:45:19.107Z,9.73
2019-03-03T19:47:23.014Z,11.47
2019-03-03T19:49:28.745Z,10.90
2019-03-03T19:51:32.160Z,12.30
2019-03-03T19:53:36.163Z,11.63
2019-03-03T19:55:39.961Z,7.97
2019-03-03T19:57:44.455Z,11.37
2019-03-03T19:59:48.381Z,9.40
2019-03-03T20:01:53.828Z,15.40
2019-03-03T20:04:00.443Z,13.97
2019-03-03T20:06:04.705Z,11.47
2019-03-03T20:08:08.575Z,12.57
2019-03-03T20:10:14.005Z,8.83
2019-03-03T20:12:17.525Z,10.53
2019-03-03T20:14:21.057Z,8.40
2019-03-03T20:16:24.953Z,13.90
2019-03-03T20:18:28.761Z,9.17
2019-03-03T20:20:32.702Z,10.63
2019-03-03T20:22:37.656Z,11.27
2019-03-03T20:24:41.312Z,12.57
2019-03-03T20:26:45.199Z,8.37
2019-03-03T20:28:50.677Z,10.47
2019-03-03T20:30:54.551Z,10.57
2019-03-03T20:32:58.452Z,9.87
2019-03-03T20:35:02.259Z,6.80
2019-03-03T20:37:06.087Z,10.53
2019-03-03T20:39:09.971Z,9.63
2019-03-03T20:41:13.872Z,10.93
2019-03-03T20:43:17.683Z,10.33
2019-03-03T20:45:26.284Z,11.90
2019-03-03T20:47:31.015Z,8.17
2019-03-03T20:49:34.911Z,10.70
2019-03-03T20:51:38.821Z,8.03
2019-03-03T20:53:42.727Z,7.87
2019-03-03T20:55:46.625Z,10.83
2019-03-03T20:57:50.540Z,7.70
2019-03-03T20:59:57.831Z,9.50
2019-03-03T21:02:01.731Z,6.00
2019-03-03T21:04:05.277Z,6.83
2019-03-03T21:06:09.139Z,6.73
2019-03-03T21:08:13.033Z,8.80
2019-03-03T21:10:18.872Z,8.43
2019-03-03T21:12:22.392Z,9.33
2019-03-03T21:14:26.284Z,9.13
2019-03-03T21:16:29.817Z,10.63
2019-03-03T21:18:33.332Z,13.40
2019-03-03T21:20:37.285Z,11.03
2019-03-03T21:22:41.202Z,8.03
2019-03-03T21:24:45.107Z,7.00
2019-03-03T21:26:48.992Z,6.47
2019-03-03T21:28:52.803Z,7.63
2019-03-03T21:30:58.955Z,5.57
2019-03-03T21:33:02.464Z,5.43
2019-03-03T21:35:09.118Z,6.53
2019-03-03T21:37:12.919Z,6.30
2019-03-03T21:39:16.747Z,7.30
2019-03-03T21:41:20.285Z,7.17
2019-03-03T21:43:23.824Z,7.40
2019-03-03T21:45:32.291Z,11.97
2019-03-03T21:47:35.798Z,6.10
2019-03-03T21:49:39.650Z,7.53
2019-03-03T21:51:43.183Z,7.83
2019-03-03T21:53:46.703Z,8.03
2019-03-03T21:55:50.248Z,9.10
2019-03-03T21:57:54.146Z,6.40
2019-03-03T21:59:58.030Z,6.60
2019-03-03T22:02:01.948Z,6.53
2019-03-03T22:04:05.852Z,7.13
2019-03-03T22:06:09.750Z,8.57
2019-03-03T22:08:13.667Z,7.73
2019-03-03T22:10:17.269Z,10.83
2019-03-03T22:12:21.178Z,8.53
2019-03-03T22:14:25.081Z,5.90
2019-03-03T22:16:29.383Z,8.30
2019-03-03T22:18:33.298Z,10.47
2019-03-03T22:20:37.194Z,5.97
2019-03-03T22:22:41.102Z,7.77
2019-03-03T22:24:44.996Z,9.77
2019-03-03T22:26:48.800Z,8.10
2019-03-03T22:28:52.344Z,4.23
2019-03-03T22:30:56.204Z,6.80
2019-03-03T22:33:00.712Z,9.67
2019-03-03T22:35:06.280Z,6.73
2019-03-03T22:37:10.181Z,7.77
2019-03-03T22:39:14.087Z,8.27
2019-03-03T22:41:17.993Z,3.93
2019-03-03T22:43:21.795Z,9.43
2019-03-03T22:45:26.708Z,5.73
2019-03-03T22:47:30.618Z,8.77
2019-03-03T22:49:35.528Z,10.00
2019-03-03T22:51:39.353Z,6.60
2019-03-03T22:53:42.896Z,5.07
2019-03-03T22:55:48.616Z,6.67
2019-03-03T22:57:52.505Z,6.53
2019-03-03T22:59:56.419Z,5.93
2019-03-03T23:01:59.913Z,5.67
2019-03-03T23:04:09.744Z,9.57
2019-03-03T23:06:28.000Z,5.97
2019-03-03T23:08:49.679Z,4.80
2019-03-03T23:11:08.233Z,5.53
2019-03-03T23:13:30.293Z,4.77
2019-03-03T23:15:48.180Z,4.53
2019-03-03T23:18:14.354Z,7.80
2019-03-03T23:20:21.735Z,6.40
2019-03-03T23:22:43.574Z,6.77
2019-03-03T23:25:02.441Z,4.93
2019-03-03T23:27:05.947Z,5.77
2019-03-03T23:29:09.875Z,8.17
2019-03-03T23:31:13.734Z,4.97
2019-03-03T23:33:18.641Z,5.60
2019-03-03T23:35:22.238Z,3.37
2019-03-03T23:37:26.084Z,5.73
2019-03-03T23:39:31.840Z,5.30
2019-03-03T23:41:35.712Z,8.67
2019-03-03T23:43:39.620Z,5.10
2019-03-03T23:45:43.420Z,4.00
2019-03-03T23:47:47.222Z,9.73
2019-03-03T23:49:50.740Z,4.27
2019-03-03T23:51:54.640Z,5.43
2019-03-03T23:53:58.428Z,5.73
2019-03-03T23:56:01.960Z,6.23
2019-03-03T23:58:06.132Z,7.10
